createdAt,value
2018-09-19T00:02:06.150Z,3.20
2018-09-19T00:04:32.476Z,3.20
2018-09-19T00:06:58.564Z,3.50
2018-09-19T00:09:24.642Z,3.37
2018-09-19T00:11:50.716Z,3.13
2018-09-19T00:14:16.812Z,2.67
2018-09-19T00:16:42.890Z,3.20
2018-09-19T00:19:08.984Z,3.10
2018-09-19T00:21:35.071Z,3.00
2018-09-19T00:24:01.780Z,3.57
2018-09-19T00:26:27.876Z,3.00
2018-09-19T00:28:53.955Z,3.50
2018-09-19T00:31:20.072Z,3.03
2018-09-19T00:33:46.188Z,3.17
2018-09-19T00:36:12.286Z,3.60
2018-09-19T00:38:38.339Z,3.40
2018-09-19T00:41:04.475Z,3.10
2018-09-19T00:43:30.568Z,3.07
2018-09-19T00:45:57.371Z,3.47
2018-09-19T00:48:23.425Z,3.13
2018-09-19T00:50:49.503Z,3.00
2018-09-19T00:53:15.605Z,3.27
2018-09-19T00:55:41.700Z,3.03
2018-09-19T00:58:07.815Z,2.90
2018-09-19T01:00:33.913Z,3.00
2018-09-19T01:03:00.013Z,2.80
2018-09-19T01:05:26.273Z,2.70
2018-09-19T01:07:52.398Z,3.50
2018-09-19T01:10:18.891Z,2.33
2018-09-19T01:12:44.992Z,2.97
2018-09-19T01:15:11.096Z,2.97
2018-09-19T01:17:37.167Z,2.90
2018-09-19T01:20:03.335Z,3.10
2018-09-19T01:22:30.020Z,2.60
2018-09-19T01:24:56.131Z,2.67
2018-09-19T01:27:22.249Z,2.90
2018-09-19T01:29:48.338Z,3.10
2018-09-19T01:32:14.427Z,3.07
2018-09-19T01:34:40.535Z,2.57
2018-09-19T01:37:06.688Z,3.40
2018-09-19T01:39:32.791Z,3.50
2018-09-19T01:41:58.905Z,3.40
2018-09-19T01:44:24.993Z,2.73
2018-09-19T01:46:51.126Z,2.53
2018-09-19T01:49:17.221Z,3.17
2018-09-19T01:51:43.319Z,3.00
2018-09-19T01:54:09.434Z,3.63
2018-09-19T01:56:35.583Z,2.93
2018-09-19T01:59:02.007Z,2.67
2018-09-19T02:01:28.090Z,3.37
2018-09-19T02:03:54.169Z,2.90
2018-09-19T02:06:20.577Z,3.20
2018-09-19T02:08:46.668Z,3.37
2018-09-19T02:11:12.783Z,3.40
2018-09-19T02:13:39.562Z,3.20
2018-09-19T02:16:05.645Z,3.70
2018-09-19T02:18:31.726Z,3.10
2018-09-19T02:20:57.806Z,3.73
2018-09-19T02:23:23.911Z,3.70
2018-09-19T02:25:49.983Z,2.90
2018-09-19T02:28:16.048Z,3.00
2018-09-19T02:30:42.135Z,3.03
2018-09-19T02:33:08.207Z,3.33
2018-09-19T02:35:35.141Z,3.73
2018-09-19T02:38:01.372Z,3.20
2018-09-19T02:40:27.467Z,3.00
2018-09-19T02:42:53.555Z,2.90
2018-09-19T02:45:19.732Z,2.93
2018-09-19T02:47:45.798Z,3.53
2018-09-19T02:50:11.953Z,2.93
2018-09-19T02:52:38.064Z,2.73
2018-09-19T02:55:04.261Z,2.87
2018-09-19T02:57:31.158Z,3.40
2018-09-19T02:59:57.279Z,3.30
2018-09-19T03:02:23.367Z,3.20
2018-09-19T03:04:49.454Z,3.53
2018-09-19T03:07:15.536Z,3.50
2018-09-19T03:09:41.661Z,2.83
2018-09-19T03:12:07.730Z,3.20
2018-09-19T03:14:33.836Z,2.90
2018-09-19T03:17:02.965Z,2.97
2018-09-19T03:19:29.083Z,2.90
2018-09-19T03:21:55.192Z,2.90
2018-09-19T03:24:21.346Z,3.00
2018-09-19T03:26:47.390Z,2.90
2018-09-19T03:29:13.506Z,2.80
2018-09-19T03:31:39.582Z,3.00
2018-09-19T03:34:05.708Z,3.00
2018-09-19T03:36:31.784Z,3.07
2018-09-19T03:38:57.886Z,3.40
2018-09-19T03:41:23.963Z,3.20
2018-09-19T03:43:50.044Z,2.90
2018-09-19T03:46:16.134Z,3.03
2018-09-19T03:48:42.192Z,3.40
2018-09-19T03:51:08.285Z,3.57
2018-09-19T03:53:34.403Z,3.23
2018-09-19T03:56:00.486Z,2.40
2018-09-19T03:58:26.581Z,3.20
2018-09-19T04:00:52.738Z,2.73
2018-09-19T04:03:18.822Z,3.50
2018-09-19T04:05:44.920Z,2.90
2018-09-19T04:08:11.683Z,2.73
2018-09-19T04:10:37.786Z,2.77
2018-09-19T04:13:03.910Z,2.43
2018-09-19T04:15:30.017Z,2.80
2018-09-19T04:17:56.193Z,3.07
2018-09-19T04:20:24.316Z,8.83
2018-09-19T04:22:50.436Z,13.93
2018-09-19T04:25:16.563Z,15.83
2018-09-19T04:27:42.878Z,14.03
2018-09-19T04:30:08.990Z,11.00
2018-09-19T04:32:35.089Z,9.07
2018-09-19T04:35:01.206Z,5.97
2018-09-19T04:37:27.289Z,4.87
2018-09-19T04:39:54.254Z,3.73
2018-09-19T04:42:20.558Z,3.57
2018-09-19T04:44:46.710Z,2.90
2018-09-19T04:47:12.802Z,3.53
2018-09-19T04:49:38.891Z,3.57
2018-09-19T04:52:05.003Z,3.13
2018-09-19T04:54:31.140Z,3.40
2018-09-19T04:56:57.268Z,3.30
2018-09-19T04:59:23.354Z,3.37
2018-09-19T05:01:49.681Z,3.43
2018-09-19T05:04:15.807Z,2.97
2018-09-19T05:06:41.910Z,3.20
2018-09-19T05:09:08.026Z,3.17
2018-09-19T05:11:34.236Z,3.17
2018-09-19T05:14:00.259Z,3.50
2018-09-19T05:16:26.396Z,2.63
2018-09-19T05:18:52.473Z,2.70
2018-09-19T05:21:18.548Z,3.10
2018-09-19T05:23:44.618Z,2.70
2018-09-19T05:26:10.680Z,3.03
2018-09-19T05:28:36.791Z,2.63
2018-09-19T05:31:02.874Z,3.10
2018-09-19T05:33:28.978Z,2.53
2018-09-19T05:35:55.097Z,2.70
2018-09-19T05:38:21.197Z,2.80
2018-09-19T05:40:47.307Z,2.70
2018-09-19T05:43:13.418Z,2.80
2018-09-19T05:45:39.539Z,2.40
2018-09-19T05:48:05.675Z,3.07
2018-09-19T05:50:31.739Z,3.03
2018-09-19T05:52:57.818Z,2.73
2018-09-19T05:55:23.933Z,2.80
2018-09-19T05:57:50.011Z,2.70
2018-09-19T06:00:16.116Z,2.70
2018-09-19T06:02:42.203Z,2.60
2018-09-19T06:05:08.666Z,2.83
2018-09-19T06:07:34.639Z,2.57
2018-09-19T06:10:00.770Z,2.70
2018-09-19T06:12:26.855Z,2.53
2018-09-19T06:14:52.946Z,2.77
2018-09-19T06:17:19.091Z,2.67
2018-09-19T06:19:45.218Z,3.00
2018-09-19T06:22:12.212Z,2.47
2018-09-19T06:24:38.275Z,2.53
2018-09-19T06:27:04.434Z,2.70
2018-09-19T06:29:31.065Z,2.70
2018-09-19T06:31:57.201Z,2.33
2018-09-19T06:34:23.290Z,2.30
2018-09-19T06:36:49.373Z,2.40
2018-09-19T06:39:15.492Z,2.43
2018-09-19T06:41:41.561Z,2.10
2018-09-19T06:44:07.698Z,2.47
2018-09-19T06:46:34.075Z,2.80
2018-09-19T06:49:00.185Z,2.60
2018-09-19T06:51:26.272Z,2.50
2018-09-19T06:53:52.374Z,2.77
2018-09-19T06:56:18.464Z,2.53
2018-09-19T06:58:44.527Z,2.50
2018-09-19T07:01:10.618Z,3.03
2018-09-19T07:03:36.694Z,2.13
2018-09-19T07:06:02.806Z,2.57
2018-09-19T07:08:28.866Z,2.13
2018-09-19T07:10:54.930Z,2.30
2018-09-19T07:13:21.000Z,2.47
2018-09-19T07:15:47.098Z,2.43
2018-09-19T07:18:13.226Z,2.27
2018-09-19T07:20:39.314Z,2.47
2018-09-19T07:23:05.436Z,2.57
2018-09-19T07:25:31.496Z,2.40
2018-09-19T07:27:57.604Z,2.50
2018-09-19T07:30:23.714Z,2.40
2018-09-19T07:32:50.285Z,2.80
2018-09-19T07:35:16.360Z,2.50
2018-09-19T07:37:42.457Z,2.70
2018-09-19T07:40:08.575Z,2.50
2018-09-19T07:42:34.669Z,2.30
2018-09-19T07:45:00.820Z,2.47
2018-09-19T07:47:26.867Z,2.37
2018-09-19T07:49:52.974Z,2.47
2018-09-19T07:52:19.096Z,2.43
2018-09-19T07:54:45.322Z,2.40
2018-09-19T07:57:11.385Z,2.30
2018-09-19T07:59:37.499Z,2.43
2018-09-19T08:02:03.582Z,2.30
2018-09-19T08:04:29.678Z,2.30
2018-09-19T08:06:55.752Z,2.30
2018-09-19T08:09:21.863Z,2.40
2018-09-19T08:11:48.001Z,2.30
2018-09-19T08:14:14.154Z,2.43
2018-09-19T08:16:40.275Z,2.30
2018-09-19T08:19:06.857Z,2.50
2018-09-19T08:21:32.918Z,2.53
2018-09-19T08:23:59.054Z,2.30
2018-09-19T08:26:25.195Z,2.40
2018-09-19T08:28:51.307Z,2.10
2018-09-19T08:31:18.369Z,2.90
2018-09-19T08:33:44.554Z,2.57
2018-09-19T08:36:10.650Z,2.40
2018-09-19T08:38:36.830Z,2.80
2018-09-19T08:41:02.920Z,2.50
2018-09-19T08:43:29.030Z,2.70
2018-09-19T08:45:58.009Z,2.53
2018-09-19T08:48:24.848Z,2.80
2018-09-19T08:50:50.956Z,2.43
2018-09-19T08:53:17.029Z,2.67
2018-09-19T08:55:43.161Z,2.47
2018-09-19T08:58:09.283Z,2.20
2018-09-19T09:00:35.393Z,2.43
2018-09-19T09:03:01.485Z,2.80
2018-09-19T09:05:27.742Z,2.70
2018-09-19T09:07:53.701Z,2.60
2018-09-19T09:10:19.817Z,3.33
2018-09-19T09:12:45.942Z,2.43
2018-09-19T09:15:12.040Z,2.60
2018-09-19T09:17:38.317Z,2.40
2018-09-19T09:20:04.597Z,2.47
2018-09-19T09:22:30.555Z,2.23
2018-09-19T09:24:56.634Z,2.50
2018-09-19T09:27:22.809Z,2.40
2018-09-19T09:29:48.807Z,2.30
2018-09-19T09:34:40.696Z,2.27
2018-09-19T09:37:06.755Z,2.50
2018-09-19T09:39:32.832Z,2.70
2018-09-19T09:41:58.895Z,1.90
2018-09-19T09:44:24.971Z,2.50
2018-09-19T09:46:51.089Z,2.60
2018-09-19T09:49:17.172Z,2.37
2018-09-19T09:51:43.263Z,3.00
2018-09-19T09:54:09.352Z,2.80
2018-09-19T09:56:35.467Z,2.27
2018-09-19T09:59:01.570Z,2.70
2018-09-19T10:01:27.674Z,2.40
2018-09-19T10:03:53.750Z,2.27
2018-09-19T10:06:19.830Z,2.57
2018-09-19T10:08:45.910Z,2.70
2018-09-19T10:11:12.024Z,2.87
2018-09-19T10:13:38.205Z,2.07
2018-09-19T10:16:04.503Z,2.80
2018-09-19T10:18:30.613Z,2.67
2018-09-19T10:20:56.696Z,3.23
2018-09-19T10:23:22.766Z,2.87
2018-09-19T10:25:48.878Z,2.73
2018-09-19T10:28:14.956Z,2.50
2018-09-19T10:30:41.069Z,2.50
2018-09-19T10:33:07.172Z,2.13
2018-09-19T10:35:33.317Z,2.80
2018-09-19T10:37:59.419Z,2.37
2018-09-19T10:40:25.523Z,2.20
2018-09-19T10:42:51.640Z,2.73
2018-09-19T10:45:17.751Z,2.43
2018-09-19T10:47:43.821Z,2.77
2018-09-19T10:50:09.896Z,2.70
2018-09-19T10:52:36.092Z,2.20
2018-09-19T10:55:02.734Z,2.10
2018-09-19T10:57:28.818Z,2.43
2018-09-19T10:59:54.895Z,2.47
2018-09-19T11:02:20.968Z,2.20
2018-09-19T11:04:47.020Z,2.50
2018-09-19T11:07:13.146Z,2.30
2018-09-19T11:09:39.256Z,2.63
2018-09-19T11:12:05.396Z,2.10
2018-09-19T11:14:31.479Z,2.10
2018-09-19T11:16:57.656Z,2.00
2018-09-19T11:19:23.723Z,2.20
2018-09-19T11:21:49.820Z,2.10
2018-09-19T11:24:15.903Z,1.80
2018-09-19T11:26:42.002Z,2.33
2018-09-19T11:29:08.122Z,2.20
2018-09-19T11:31:34.208Z,2.30
2018-09-19T11:34:00.272Z,2.13
2018-09-19T11:36:26.388Z,1.97
2018-09-19T11:38:52.509Z,2.03
2018-09-19T11:41:18.643Z,2.10
2018-09-19T11:43:44.720Z,2.03
2018-09-19T11:46:10.844Z,2.00
2018-09-19T11:48:36.911Z,2.13
2018-09-19T11:51:03.032Z,2.20
2018-09-19T11:53:29.160Z,2.30
2018-09-19T11:55:55.264Z,2.13
2018-09-19T11:58:21.372Z,2.30
2018-09-19T12:00:47.490Z,2.50
2018-09-19T12:03:13.590Z,2.10
2018-09-19T12:05:39.653Z,2.03
2018-09-19T12:08:05.760Z,2.57
2018-09-19T12:10:31.858Z,2.30
2018-09-19T12:12:57.972Z,2.30
2018-09-19T12:15:24.062Z,2.23
2018-09-19T12:17:50.290Z,2.10
2018-09-19T12:20:16.377Z,2.43
2018-09-19T12:22:42.468Z,2.43
2018-09-19T12:25:08.579Z,2.20
2018-09-19T12:27:34.656Z,2.37
2018-09-19T12:30:01.714Z,1.90
2018-09-19T12:32:27.791Z,2.00
2018-09-19T12:34:53.892Z,2.50
2018-09-19T12:37:21.839Z,2.40
2018-09-19T12:39:47.952Z,2.20
2018-09-19T12:42:14.054Z,2.20
2018-09-19T12:44:40.145Z,2.10
2018-09-19T12:47:06.276Z,2.53
2018-09-19T12:49:32.375Z,2.30
2018-09-19T12:51:58.466Z,2.33
2018-09-19T12:54:24.551Z,2.13
2018-09-19T12:56:50.635Z,2.67
2018-09-19T12:59:16.689Z,2.47
2018-09-19T13:01:42.811Z,2.10
2018-09-19T13:04:08.928Z,2.73
2018-09-19T13:06:35.050Z,2.30
2018-09-19T13:09:01.152Z,2.37
2018-09-19T13:11:27.290Z,2.30
2018-09-19T13:13:53.396Z,2.20
2018-09-19T13:16:19.540Z,2.53
2018-09-19T13:18:45.668Z,2.10
2018-09-19T13:21:11.756Z,2.13
2018-09-19T13:23:37.824Z,2.30
2018-09-19T13:26:03.958Z,2.40
2018-09-19T13:28:30.235Z,2.20
2018-09-19T13:30:56.336Z,1.90
2018-09-19T13:33:23.205Z,2.23
2018-09-19T13:35:50.059Z,2.57
2018-09-19T13:38:16.172Z,2.20
2018-09-19T13:40:42.280Z,2.73
2018-09-19T13:43:08.423Z,2.40
2018-09-19T13:45:34.520Z,2.07
2018-09-19T13:48:00.597Z,2.30
2018-09-19T13:50:32.311Z,2.50
2018-09-19T13:52:58.380Z,2.20
2018-09-19T13:55:24.447Z,2.40
2018-09-19T13:57:50.520Z,2.50
2018-09-19T14:00:16.655Z,2.40
2018-09-19T14:02:42.718Z,2.60
2018-09-19T14:05:08.833Z,2.70
2018-09-19T14:07:34.939Z,2.73
2018-09-19T14:10:01.024Z,2.37
2018-09-19T14:12:27.229Z,2.30
2018-09-19T14:14:53.323Z,2.50
2018-09-19T14:17:19.443Z,2.57
2018-09-19T14:19:45.547Z,2.40
2018-09-19T14:22:11.618Z,2.23
2018-09-19T14:24:37.715Z,2.20
2018-09-19T14:27:03.830Z,2.63
2018-09-19T14:29:29.927Z,2.57
2018-09-19T14:31:55.970Z,2.60
2018-09-19T14:34:22.110Z,2.53
2018-09-19T14:36:48.295Z,2.53
2018-09-19T14:39:14.408Z,2.70
2018-09-19T14:41:40.486Z,2.23
2018-09-19T14:44:06.589Z,2.40
2018-09-19T14:46:32.686Z,2.47
2018-09-19T14:48:58.774Z,2.80
2018-09-19T14:51:24.880Z,2.87
2018-09-19T14:53:50.962Z,2.40
2018-09-19T14:56:17.055Z,2.83
2018-09-19T14:58:43.173Z,2.60
2018-09-19T15:01:09.248Z,2.40
2018-09-19T15:03:35.338Z,2.83
2018-09-19T15:06:01.460Z,2.57
2018-09-19T15:08:27.560Z,2.70
2018-09-19T15:10:53.666Z,2.90
2018-09-19T15:13:19.771Z,2.40
2018-09-19T15:15:45.879Z,2.77
2018-09-19T15:18:13.016Z,2.93
2018-09-19T15:20:39.036Z,2.90
2018-09-19T15:23:05.152Z,2.50
2018-09-19T15:25:31.299Z,2.63
2018-09-19T15:27:57.396Z,2.50
2018-09-19T15:30:23.500Z,2.77
2018-09-19T15:32:49.606Z,3.10
2018-09-19T15:35:15.732Z,2.67
2018-09-19T15:37:41.824Z,2.97
2018-09-19T15:40:07.934Z,2.60
2018-09-19T15:42:34.057Z,3.07
2018-09-19T15:45:00.166Z,2.80
2018-09-19T15:47:26.276Z,3.43
2018-09-19T15:49:52.566Z,3.30
2018-09-19T15:52:18.710Z,3.80
2018-09-19T15:54:44.776Z,2.77
2018-09-19T15:57:10.858Z,2.87
2018-09-19T15:59:36.951Z,2.87
2018-09-19T16:02:03.091Z,2.50
2018-09-19T16:04:29.195Z,2.77
2018-09-19T16:06:55.322Z,2.90
2018-09-19T16:09:21.422Z,2.80
2018-09-19T16:11:47.540Z,2.80
2018-09-19T16:14:13.622Z,3.10
2018-09-19T16:16:39.722Z,2.97
2018-09-19T16:19:05.847Z,3.43
2018-09-19T16:21:31.986Z,3.30
2018-09-19T16:23:58.101Z,2.60
2018-09-19T16:26:24.232Z,3.23
2018-09-19T16:28:50.325Z,3.10
2018-09-19T16:31:16.421Z,3.60
2018-09-19T16:33:42.555Z,3.07
2018-09-19T16:36:08.678Z,3.20
2018-09-19T16:38:34.819Z,2.73
2018-09-19T16:41:00.950Z,3.17
2018-09-19T16:43:27.070Z,3.27
2018-09-19T16:45:53.204Z,3.00
2018-09-19T16:48:19.263Z,3.13
2018-09-19T16:50:45.323Z,3.20
2018-09-19T16:53:12.093Z,3.13
2018-09-19T16:55:38.198Z,3.20
2018-09-19T16:58:04.332Z,3.10
2018-09-19T17:00:30.515Z,3.13
2018-09-19T17:02:56.943Z,3.20
2018-09-19T17:05:23.343Z,3.17
2018-09-19T17:07:49.465Z,3.30
2018-09-19T17:10:15.548Z,3.67
2018-09-19T17:12:41.643Z,3.80
2018-09-19T17:15:07.805Z,4.47
2018-09-19T17:17:33.920Z,3.40
2018-09-19T17:20:00.061Z,3.47
2018-09-19T17:22:26.181Z,3.43
2018-09-19T17:24:52.342Z,3.40
2018-09-19T17:27:18.431Z,3.80
2018-09-19T17:29:44.583Z,4.20
2018-09-19T17:32:10.756Z,3.90
2018-09-19T17:34:37.520Z,3.50
2018-09-19T17:37:03.674Z,3.70
2018-09-19T17:39:29.782Z,3.27
2018-09-19T17:41:55.914Z,3.47
2018-09-19T17:44:22.054Z,3.47
2018-09-19T17:46:48.225Z,3.80
2018-09-19T17:49:15.591Z,7.00
2018-09-19T17:51:41.782Z,8.17
2018-09-19T17:54:07.862Z,8.23
2018-09-19T17:56:34.621Z,8.57
2018-09-19T17:59:00.733Z,6.90
2018-09-19T18:01:26.834Z,6.17
2018-09-19T18:06:25.739Z,5.43
2018-09-19T18:08:51.845Z,5.47
2018-09-19T18:11:17.919Z,5.10
2018-09-19T18:13:44.107Z,5.23
2018-09-19T18:16:10.259Z,4.90
2018-09-19T18:18:36.343Z,5.07
2018-09-19T18:21:02.467Z,4.70
2018-09-19T18:23:28.547Z,5.23
2018-09-19T18:25:54.627Z,3.93
2018-09-19T18:28:21.278Z,3.83
2018-09-19T18:30:47.387Z,4.10
2018-09-19T18:33:13.475Z,3.30
2018-09-19T18:35:39.599Z,4.07
2018-09-19T18:38:05.959Z,5.10
2018-09-19T18:40:32.028Z,4.57
2018-09-19T18:42:58.139Z,3.67
2018-09-19T18:45:24.216Z,3.53
2018-09-19T18:47:50.299Z,3.53
2018-09-19T18:50:16.565Z,3.60
2018-09-19T18:52:42.660Z,3.13
2018-09-19T18:55:08.760Z,3.87
2018-09-19T18:57:34.891Z,3.80
2018-09-19T19:00:01.040Z,3.70
2018-09-19T19:02:27.191Z,4.07
2018-09-19T19:04:53.307Z,3.97
2018-09-19T19:07:19.399Z,3.83
2018-09-19T19:09:45.562Z,4.00
2018-09-19T19:14:46.641Z,3.03
2018-09-19T19:17:20.862Z,3.40
2018-09-19T19:19:55.143Z,3.87
2018-09-19T19:22:27.445Z,3.40
2018-09-19T19:25:00.622Z,3.57
2018-09-19T19:30:13.283Z,4.33
2018-09-19T19:38:43.068Z,3.80
2018-09-19T19:41:10.518Z,3.63
2018-09-19T19:43:40.292Z,3.63
2018-09-19T19:46:09.030Z,3.60
2018-09-19T19:48:38.278Z,3.50
2018-09-19T19:51:05.283Z,3.60
2018-09-19T19:53:33.971Z,3.33
2018-09-19T19:56:00.407Z,3.77
2018-09-19T19:58:28.575Z,3.50
2018-09-19T20:03:36.831Z,2.97
2018-09-19T20:06:03.091Z,3.37
2018-09-19T20:08:29.384Z,4.00
2018-09-19T20:10:56.350Z,3.67
2018-09-19T20:13:22.755Z,4.23
2018-09-19T20:15:50.909Z,3.27
2018-09-19T20:18:17.241Z,3.67
2018-09-19T20:20:43.365Z,4.13
2018-09-19T20:23:10.704Z,4.50
2018-09-19T20:25:39.671Z,4.07
2018-09-19T20:28:07.396Z,3.97
2018-09-19T20:30:37.015Z,3.87
2018-09-19T20:33:04.455Z,3.47
2018-09-19T20:35:31.841Z,3.87
2018-09-19T20:37:59.440Z,3.20
2018-09-19T20:40:27.292Z,3.93
2018-09-19T20:42:57.333Z,3.53
2018-09-19T20:45:27.609Z,3.83
2018-09-19T20:47:55.570Z,3.57
2018-09-19T20:50:21.841Z,3.50
2018-09-19T20:52:47.966Z,4.23
2018-09-19T20:55:14.112Z,3.33
2018-09-19T20:57:40.262Z,3.70
2018-09-19T21:00:06.390Z,4.00
2018-09-19T21:02:32.494Z,4.20
2018-09-19T21:04:58.589Z,3.90
2018-09-19T21:07:24.654Z,3.20
2018-09-19T21:09:50.742Z,4.23
2018-09-19T21:12:16.833Z,3.53
2018-09-19T21:14:42.993Z,2.80
2018-09-19T21:17:09.043Z,3.40
2018-09-19T21:19:35.170Z,3.37
2018-09-19T21:22:01.392Z,3.50
2018-09-19T21:24:27.366Z,3.33
2018-09-19T21:26:53.436Z,3.30
2018-09-19T21:29:19.552Z,3.80
2018-09-19T21:31:45.657Z,4.10
2018-09-19T21:34:11.791Z,4.00
2018-09-19T21:36:37.846Z,3.80
2018-09-19T21:39:05.814Z,3.33
2018-09-19T21:41:31.894Z,3.50
2018-09-19T21:43:57.966Z,2.97
2018-09-19T21:46:24.033Z,3.30
2018-09-19T21:48:50.136Z,3.43
2018-09-19T21:51:16.212Z,3.60
2018-09-19T21:53:43.068Z,2.90
2018-09-19T21:56:09.182Z,3.50
2018-09-19T21:58:35.285Z,3.27
2018-09-19T22:01:01.443Z,4.07
2018-09-19T22:03:27.512Z,3.23
2018-09-19T22:05:53.587Z,3.60
2018-09-19T22:08:19.705Z,3.20
2018-09-19T22:10:45.795Z,3.40
2018-09-19T22:13:12.093Z,4.27
2018-09-19T22:15:38.176Z,3.40
2018-09-19T22:18:04.266Z,2.93
2018-09-19T22:20:30.342Z,3.47
2018-09-19T22:22:56.444Z,3.53
2018-09-19T22:25:22.543Z,4.10
2018-09-19T22:27:48.634Z,4.10
2018-09-19T22:30:14.743Z,3.37
2018-09-19T22:32:40.851Z,3.37
2018-09-19T22:35:07.066Z,3.37
2018-09-19T22:37:33.180Z,3.60
2018-09-19T22:39:59.250Z,3.40
2018-09-19T22:42:25.328Z,3.90
2018-09-19T22:44:51.396Z,4.57
2018-09-19T22:47:17.478Z,4.30
2018-09-19T22:49:43.570Z,4.47
2018-09-19T22:52:09.708Z,3.60
2018-09-19T22:54:35.874Z,4.60
2018-09-19T22:57:01.962Z,3.80
2018-09-19T22:59:28.022Z,4.30
2018-09-19T23:01:54.790Z,4.67
2018-09-19T23:04:20.854Z,4.30
2018-09-19T23:06:47.020Z,3.37
2018-09-19T23:09:13.113Z,4.17
2018-09-19T23:11:39.228Z,4.27
2018-09-19T23:14:05.330Z,3.83
2018-09-19T23:16:31.422Z,3.80
2018-09-19T23:18:57.480Z,3.07
2018-09-19T23:21:23.615Z,3.20
2018-09-19T23:23:49.734Z,3.50
2018-09-19T23:26:16.718Z,4.27
2018-09-19T23:28:42.778Z,4.40
2018-09-19T23:31:08.864Z,4.57
2018-09-19T23:33:34.963Z,3.87
2018-09-19T23:36:01.049Z,4.07
2018-09-19T23:38:27.115Z,3.90
2018-09-19T23:40:53.213Z,3.90
2018-09-19T23:43:19.297Z,3.50
2018-09-19T23:45:45.369Z,4.23
2018-09-19T23:48:11.444Z,3.80
2018-09-19T23:50:37.529Z,4.13
2018-09-19T23:53:03.660Z,4.10
2018-09-19T23:55:29.728Z,4.20
2018-09-19T23:57:55.909Z,4.47
